TimeCST,TemperatureF,Dew PointF,Humidity,Sea Level PressureIn,VisibilityMPH,Wind Direction,Wind SpeedMPH,Gust SpeedMPH,PrecipitationIn,Events,Conditions,WindDirDegrees,DateUTC
12:15 AM,59.2,56.7,91,30.02,7.0,SE,3.5,-,N/A,,Scattered Clouds,130,2013-01-01 06:15:00
12:35 AM,59.0,56.8,93,30.02,7.0,SE,3.5,-,N/A,,Clear,140,2013-01-01 06:35:00
12:55 AM,59.0,57.0,93,30.01,7.0,SSE,4.6,-,N/A,,Clear,150,2013-01-01 06:55:00
1:15 AM,58.6,56.8,94,30.00,10.0,Calm,Calm,-,N/A,,Clear,0,2013-01-01 07:15:00
1:35 AM,58.3,56.8,95,30.00,7.0,SSE,3.5,-,N/A,,Clear,150,2013-01-01 07:35:00
1:55 AM,57.4,56.5,97,30.00,7.0,Calm,Calm,-,N/A,,Clear,0,2013-01-01 07:55:00
2:15 AM,57.0,55.9,96,30.00,7.0,Calm,Calm,-,N/A,,Clear,0,2013-01-01 08:15:00
2:35 AM,57.6,57.0,98,30.00,7.0,Calm,Calm,-,N/A,,Mostly Cloudy,0,2013-01-01 08:35:00
2:55 AM,57.7,57.2,98,30.00,5.0,Calm,Calm,-,N/A,,Overcast,0,2013-01-01 08:55:00
3:15 AM,57.2,56.5,97,30.00,7.0,Calm,Calm,-,N/A,,Mostly Cloudy,0,2013-01-01 09:15:00
3:35 AM,57.7,57.2,98,29.99,5.0,Calm,Calm,-,N/A,,Scattered Clouds,0,2013-01-01 09:35:00
3:55 AM,57.0,56.3,97,29.98,7.0,Calm,Calm,-,N/A,,Scattered Clouds,0,2013-01-01 09:55:00
4:15 AM,57.2,56.5,97,29.97,7.0,SSE,3.5,-,N/A,,Clear,160,2013-01-01 10:15:00
4:35 AM,59.5,57.4,93,29.97,10.0,South,4.6,-,N/A,,Scattered Clouds,170,2013-01-01 10:35:00
4:55 AM,60.1,58.8,96,29.96,10.0,South,5.8,-,N/A,,Overcast,170,2013-01-01 10:55:00
5:15 AM,61.3,59.7,94,29.95,10.0,SSE,6.9,-,N/A,,Overcast,160,2013-01-01 11:15:00
5:35 AM,61.0,59.2,94,29.95,10.0,South,4.6,-,N/A,,Scattered Clouds,170,2013-01-01 11:35:00
5:55 AM,61.9,60.1,94,29.95,10.0,South,4.6,-,N/A,,Scattered Clouds,170,2013-01-01 11:55:00
6:15 AM,62.1,60.6,95,29.95,10.0,SSE,4.6,-,N/A,,Scattered Clouds,160,2013-01-01 12:15:00
6:35 AM,63.0,61.2,94,29.95,10.0,SSE,5.8,-,N/A,,Scattered Clouds,160,2013-01-01 12:35:00
6:55 AM,63.9,61.9,93,29.95,10.0,SSE,8.1,-,N/A,,Scattered Clouds,160,2013-01-01 12:55:00
7:15 AM,65.3,62.6,91,29.95,10.0,SSE,10.4,16.1,N/A,,Clear,160,2013-01-01 13:15:00
7:35 AM,66.0,63.0,90,29.95,10.0,South,9.2,-,N/A,,Mostly Cloudy,170,2013-01-01 13:35:00
7:55 AM,66.6,63.5,90,29.96,10.0,South,9.2,-,N/A,,Overcast,170,2013-01-01 13:55:00
8:15 AM,67.1,63.5,88,29.97,10.0,South,8.1,16.1,N/A,,Overcast,170,2013-01-01 14:15:00
8:35 AM,68.0,63.9,87,29.97,10.0,South,10.4,-,N/A,,Overcast,170,2013-01-01 14:35:00
8:55 AM,68.2,64.0,87,29.98,10.0,South,9.2,-,N/A,,Overcast,170,2013-01-01 14:55:00
9:15 AM,68.5,64.4,87,29.98,10.0,South,12.7,16.1,N/A,,Overcast,170,2013-01-01 15:15:00
9:35 AM,69.1,64.6,86,29.98,10.0,South,12.7,17.3,N/A,,Overcast,180,2013-01-01 15:35:00
9:55 AM,69.8,64.4,83,29.98,10.0,South,11.5,19.6,N/A,,Overcast,180,2013-01-01 15:55:00
10:15 AM,71.4,64.6,79,29.98,10.0,South,11.5,18.4,N/A,,Overcast,180,2013-01-01 16:15:00
10:35 AM,72.0,64.4,77,29.98,10.0,South,11.5,-,N/A,,Overcast,180,2013-01-01 16:35:00
10:55 AM,72.9,64.4,75,29.97,10.0,North,-9999.0,-,N/A,,Overcast,0,2013-01-01 16:55:00
11:15 AM,73.8,63.7,71,29.97,10.0,SW,6.9,16.1,N/A,,Overcast,220,2013-01-01 17:15:00
11:35 AM,73.0,63.5,72,29.97,10.0,West,5.8,-,N/A,,Light Drizzle,270,2013-01-01 17:35:00
11:55 AM,72.0,63.7,75,29.95,10.0,Calm,Calm,-,N/A,,Overcast,0,2013-01-01 17:55:00
12:15 PM,71.2,64.4,79,29.94,10.0,NW,4.6,-,N/A,,Overcast,310,2013-01-01 18:15:00
12:35 PM,66.4,63.1,89,29.93,10.0,North,9.2,-,N/A,,Overcast,350,2013-01-01 18:35:00
12:55 PM,65.3,62.6,91,29.92,10.0,NNW,4.6,-,N/A,Rain,Light Rain,340,2013-01-01 18:55:00
1:15 PM,64.8,63.1,94,29.92,7.0,North,3.5,-,N/A,Rain,Rain,360,2013-01-01 19:15:00
1:35 PM,64.4,63.1,96,29.91,5.0,North,-9999.0,-,0.01,,Drizzle,0,2013-01-01 19:35:00
1:55 PM,64.4,63.9,98,29.90,3.0,Calm,Calm,-,0.03,Rain,Rain,0,2013-01-01 19:55:00
2:15 PM,64.4,63.7,98,29.91,3.0,Calm,Calm,-,0.01,,Heavy Drizzle,0,2013-01-01 20:15:00
2:35 PM,64.4,63.9,98,29.91,4.0,North,-9999.0,-,0.01,,Light Drizzle,0,2013-01-01 20:35:00
2:55 PM,63.9,63.7,99,29.92,3.0,NW,6.9,-,0.09,Rain,Rain,320,2013-01-01 20:55:00
3:15 PM,64.0,63.9,99,29.92,4.0,Calm,Calm,-,0.08,Rain,Light Rain,0,2013-01-01 21:15:00
3:35 PM,59.7,58.6,96,29.93,7.0,WNW,12.7,20.7,0.08,,Drizzle,300,2013-01-01 21:35:00
3:55 PM,57.7,56.8,97,29.95,10.0,WNW,9.2,18.4,0.08,,Drizzle,300,2013-01-01 21:55:00
4:15 PM,57.2,56.3,97,29.96,10.0,NNW,11.5,18.4,0.01,Rain,Rain,330,2013-01-01 22:15:00
4:35 PM,56.7,55.6,96,29.97,10.0,NW,12.7,18.4,0.04,Rain,Light Rain,320,2013-01-01 22:35:00
4:55 PM,56.3,55.2,96,29.98,10.0,NNW,12.7,19.6,0.05,Rain,Light Rain,330,2013-01-01 22:55:00
5:15 PM,55.8,54.7,96,29.99,10.0,North,11.5,19.6,N/A,,Light Drizzle,350,2013-01-01 23:15:00
5:35 PM,55.4,54.0,95,29.99,10.0,North,11.5,19.6,N/A,,Drizzle,350,2013-01-01 23:35:00
5:55 PM,55.0,53.1,93,30.00,10.0,North,12.7,23.0,0.01,,Overcast,350,2013-01-01 23:55:00
6:15 PM,54.3,52.9,95,30.02,10.0,North,11.5,-,N/A,Rain,Rain,350,2013-01-02 00:15:00
6:35 PM,53.8,51.8,93,30.03,10.0,North,12.7,20.7,N/A,,Light Drizzle,350,2013-01-02 00:35:00
6:55 PM,53.6,51.8,94,30.05,10.0,North,12.7,-,N/A,Rain,Light Rain,350,2013-01-02 00:55:00
7:15 PM,52.9,50.9,93,30.06,10.0,North,10.4,17.3,N/A,Rain,Light Rain,360,2013-01-02 01:15:00
7:35 PM,52.2,50.9,95,30.06,10.0,North,8.1,-,0.01,Rain,Light Rain,360,2013-01-02 01:35:00
7:55 PM,52.2,50.9,95,30.07,10.0,North,5.8,-,0.01,,Drizzle,360,2013-01-02 01:55:00
8:15 PM,52.3,50.9,95,30.06,10.0,North,5.8,-,0.01,Rain,Light Rain,10,2013-01-02 02:15:00
8:35 PM,52.7,51.1,94,30.07,10.0,North,5.8,-,0.01,Rain,Light Rain,360,2013-01-02 02:35:00
8:55 PM,52.3,51.3,96,30.08,10.0,North,5.8,-,0.01,,Drizzle,360,2013-01-02 02:55:00
9:15 PM,52.2,51.1,96,30.09,10.0,NNW,6.9,-,N/A,,Overcast,340,2013-01-02 03:15:00
9:35 PM,52.0,50.9,96,30.09,10.0,North,8.1,-,N/A,,Overcast,360,2013-01-02 03:35:00
9:55 PM,51.8,50.0,94,30.09,10.0,North,8.1,-,N/A,,Overcast,350,2013-01-02 03:55:00
10:15 PM,51.4,49.5,93,30.08,10.0,North,6.9,-,N/A,,Overcast,10,2013-01-02 04:15:00
10:35 PM,51.3,49.5,94,30.09,10.0,North,9.2,-,N/A,,Overcast,360,2013-01-02 04:35:00
10:55 PM,51.1,49.1,93,30.10,10.0,North,8.1,-,N/A,,Overcast,350,2013-01-02 04:55:00
11:15 PM,50.9,49.1,94,30.09,10.0,North,8.1,-,N/A,Rain,Light Rain,360,2013-01-02 05:15:00
11:35 PM,50.5,48.9,94,30.11,10.0,North,5.8,17.3,N/A,Rain,Light Rain,350,2013-01-02 05:35:00
11:55 PM,50.2,48.4,94,30.10,10.0,North,8.1,-,N/A,,Overcast,360,2013-01-02 05:55:00